Time;durP1;ratioP1;P1;durP2;ratioP2;P2;SDS_P1;SDS_P2;PMS_P1;PMS_P2;Temp;Humidity;BMP_temperature;BMP_pressure;BME280_temperature;BME280_humidity;BME280_pressure;Samples;Min_cycle;Max_cycle;Signal;HPM_P1;HPM_P2
2022/11/16 00:01:44;;;;;;;35.63;12.87;;;5.70;99.90;;;;;;4772941;30;20261;-82
2022/11/16 00:04:11;;;;;;;28.33;12.20;;;5.70;99.90;;;;;;4772955;30;20604;-81
2022/11/16 00:06:39;;;;;;;34.33;13.00;;;5.70;99.90;;;;;;4772711;30;20235;-81
2022/11/16 00:09:22;;;;;;;50.17;14.90;;;5.60;99.90;;;;;;4772863;29;20205;-82
2022/11/16 00:11:54;;;;;;;35.17;13.50;;;5.70;99.90;;;;;;4772635;30;20239;-82
2022/11/16 00:14:22;;;;;;;36.03;13.37;;;5.70;99.90;;;;;;4772765;30;20204;-86
2022/11/16 00:16:50;;;;;;;31.00;12.63;;;5.70;99.90;;;;;;4772522;30;20575;-87
2022/11/16 00:19:17;;;;;;;31.90;12.77;;;5.70;99.90;;;;;;4788829;30;20658;-85
2022/11/16 00:21:44;;;;;;;32.80;13.30;;;5.70;99.90;;;;;;4757964;30;20242;-87
2022/11/16 00:24:13;;;;;;;35.30;13.07;;;5.70;99.90;;;;;;4788773;29;20283;-87
2022/11/16 00:26:40;;;;;;;33.07;13.37;;;5.80;99.90;;;;;;4788288;29;20633;-85
2022/11/16 00:29:16;;;;;;;32.97;13.30;;;5.80;99.90;;;;;;4757904;30;20207;-87
2022/11/16 00:31:44;;;;;;;33.07;13.20;;;5.80;99.90;;;;;;4789035;29;20207;-82
2022/11/16 00:34:11;;;;;;;32.03;13.30;;;5.80;99.90;;;;;;4788897;30;20216;-83
2022/11/16 00:36:38;;;;;;;32.63;13.43;;;5.80;99.90;;;;;;4772635;30;20222;-86
2022/11/16 00:39:05;;;;;;;34.00;12.93;;;5.80;99.90;;;;;;4772269;29;20316;-87
2022/11/16 00:41:32;;;;;;;33.03;12.67;;;5.70;99.90;;;;;;4772124;30;20232;-85
2022/11/16 00:43:59;;;;;;;33.00;12.93;;;5.80;99.90;;;;;;4772297;30;20696;-86
2022/11/16 00:46:26;;;;;;;32.77;13.37;;;5.70;99.90;;;;;;4757358;30;20219;-84
2022/11/16 00:48:53;;;;;;;31.97;12.93;;;5.70;99.90;;;;;;4788537;29;20591;-84
2022/11/16 00:51:20;;;;;;;29.67;12.37;;;5.70;99.90;;;;;;4772658;29;20314;-81
2022/11/16 00:53:47;;;;;;;33.43;12.87;;;5.80;99.90;;;;;;4772502;30;20236;-86
2022/11/16 00:56:14;;;;;;;30.50;12.17;;;5.80;99.90;;;;;;4772020;30;20226;-87
2022/11/16 00:58:41;;;;;;;33.90;12.63;;;5.90;99.90;;;;;;4772527;30;20234;-86
2022/11/16 01:01:10;;;;;;;31.63;12.47;;;5.90;99.90;;;;;;4772416;30;20200;-85
2022/11/16 01:03:37;;;;;;;27.97;11.73;;;5.90;99.90;;;;;;4772149;30;20204;-85
2022/11/16 01:06:07;;;;;;;29.10;12.80;;;5.90;99.90;;;;;;4757466;30;20201;-85
2022/11/16 01:08:36;;;;;;;27.90;12.30;;;5.80;99.90;;;;;;4791561;29;20222;-84
2022/11/16 01:13:49;;;;;;;29.53;11.93;;;5.80;99.90;;;;;;4771980;30;20211;-87
2022/11/16 01:16:18;;;;;;;33.87;13.37;;;5.80;99.90;;;;;;4772219;30;20218;-86
2022/11/16 01:18:50;;;;;;;29.87;12.57;;;5.80;99.90;;;;;;4772544;30;20203;-85
2022/11/16 01:21:18;;;;;;;27.17;11.60;;;5.80;99.90;;;;;;4772084;30;20549;-82
2022/11/16 01:23:45;;;;;;;28.50;11.63;;;5.80;99.90;;;;;;4773456;30;20677;-85
2022/11/16 01:26:12;;;;;;;29.43;11.43;;;5.80;99.90;;;;;;4787873;29;20263;-86
2022/11/16 01:28:39;;;;;;;28.17;11.67;;;5.80;99.90;;;;;;4772134;30;20231;-83
2022/11/16 01:31:08;;;;;;;26.13;11.67;;;5.90;99.90;;;;;;4771787;30;20314;-83
2022/11/16 01:33:35;;;;;;;26.83;11.77;;;5.90;99.90;;;;;;4771748;30;20254;-83
2022/11/16 01:36:07;;;;;;;25.97;11.60;;;5.80;99.90;;;;;;4788005;29;20207;-86
2022/11/16 01:38:34;;;;;;;26.47;11.83;;;5.80;99.90;;;;;;4773582;30;20204;-84
2022/11/16 01:41:02;;;;;;;26.97;11.37;;;5.90;99.90;;;;;;4791536;29;20198;-85
2022/11/16 01:43:53;;;;;;;27.40;11.83;;;5.90;99.90;;;;;;4775564;30;20259;-84
2022/11/16 01:46:20;;;;;;;26.07;11.10;;;5.80;99.90;;;;;;4791630;29;20227;-83
2022/11/16 01:48:50;;;;;;;26.00;11.53;;;5.90;99.90;;;;;;4775157;30;20234;-81
2022/11/16 01:51:17;;;;;;;26.53;11.43;;;5.90;99.90;;;;;;4791459;29;20203;-86
2022/11/16 01:53:44;;;;;;;27.97;11.67;;;6.00;99.90;;;;;;4775461;30;20997;-85
2022/11/16 01:56:11;;;;;;;25.77;11.03;;;6.00;99.90;;;;;;4775250;30;20577;-85
2022/11/16 01:58:39;;;;;;;26.30;11.83;;;6.00;99.90;;;;;;4775249;30;20200;-85
2022/11/16 02:01:06;;;;;;;25.60;11.10;;;5.90;99.90;;;;;;4791448;29;20232;-85
2022/11/16 02:03:36;;;;;;;25.73;11.33;;;5.90;99.90;;;;;;4790549;29;20572;-84
2022/11/16 02:06:25;;;;;;;29.40;10.93;;;5.90;99.90;;;;;;4774700;30;20211;-86
2022/11/16 02:12:16;;;;;;;23.87;10.80;;;5.90;99.90;;;;;;4791115;30;20207;-85
2022/11/16 02:14:56;;;;;;;23.70;10.37;;;5.90;99.90;;;;;;4774634;30;20220;-84
2022/11/16 02:17:42;;;;;;;25.20;10.47;;;5.90;99.90;;;;;;4774774;30;20214;-86
2022/11/16 02:20:30;;;;;;;22.97;10.20;;;5.90;99.90;;;;;;4774791;30;20240;-85
2022/11/16 02:23:00;;;;;;;21.33;9.93;;;5.90;99.90;;;;;;4774829;30;20704;-86
2022/11/16 02:25:58;;;;;;;22.20;10.13;;;5.90;99.90;;;;;;4774767;29;20249;-86
2022/11/16 02:29:03;;;;;;;22.10;9.33;;;5.90;99.90;;;;;;4775015;30;20651;-87
2022/11/16 02:31:41;;;;;;;30.03;10.43;;;5.90;99.90;;;;;;4774798;30;20677;-86
2022/11/16 02:34:11;;;;;;;25.37;10.30;;;5.80;99.90;;;;;;4775119;30;20290;-86
2022/11/16 02:36:41;;;;;;;20.97;9.30;;;5.90;99.90;;;;;;4774442;30;20211;-88
2022/11/16 02:39:13;;;;;;;21.53;9.70;;;5.90;99.90;;;;;;4774719;30;20204;-85
2022/11/16 02:41:44;;;;;;;19.40;9.03;;;5.90;99.90;;;;;;4774837;30;20210;-84
2022/11/16 02:44:19;;;;;;;19.33;8.83;;;5.90;99.90;;;;;;4774540;30;20543;-86
2022/11/16 02:46:53;;;;;;;20.50;9.43;;;5.90;99.90;;;;;;4790964;29;20202;-87
2022/11/16 02:49:22;;;;;;;20.60;8.53;;;5.90;99.90;;;;;;4775166;30;20219;-84
2022/11/16 02:51:51;;;;;;;19.40;9.20;;;5.90;99.90;;;;;;4790765;29;20227;-83
2022/11/16 02:54:20;;;;;;;20.30;8.37;;;5.90;99.90;;;;;;4771911;30;20255;-82
2022/11/16 02:56:56;;;;;;;18.10;8.60;;;5.90;99.90;;;;;;4771133;30;20239;-87
2022/11/16 02:59:31;;;;;;;18.80;8.40;;;6.00;99.90;;;;;;4772056;30;20203;-86
2022/11/16 03:02:23;;;;;;;22.80;9.37;;;5.90;99.90;;;;;;4772734;30;20219;-88
2022/11/16 03:05:05;;;;;;;19.57;9.03;;;5.90;99.90;;;;;;4771500;30;20220;-88
2022/11/16 03:07:41;;;;;;;19.20;8.50;;;5.90;99.90;;;;;;4771602;30;20211;-86
2022/11/16 03:10:09;;;;;;;18.30;8.67;;;5.90;99.90;;;;;;4786352;29;20310;-85
2022/11/16 03:12:39;;;;;;;19.87;9.47;;;6.00;99.90;;;;;;4771485;30;20216;-86
2022/11/16 03:15:10;;;;;;;21.60;9.50;;;5.90;99.90;;;;;;4772687;29;20204;-85
2022/11/16 03:17:44;;;;;;;21.40;8.83;;;5.90;99.90;;;;;;4771503;30;20223;-87
2022/11/16 03:20:28;;;;;;;21.20;9.83;;;5.90;99.90;;;;;;4772850;30;20211;-88
2022/11/16 03:23:02;;;;;;;19.70;9.63;;;5.90;99.90;;;;;;4771409;30;20709;-86
2022/11/16 03:25:35;;;;;;;23.23;10.40;;;5.80;99.90;;;;;;4770992;30;20213;-85
2022/11/16 03:28:19;;;;;;;23.03;10.73;;;5.80;99.90;;;;;;4771138;30;20294;-82
2022/11/16 03:31:03;;;;;;;21.50;9.57;;;5.60;99.90;;;;;;4771084;30;20241;-81
2022/11/16 03:33:38;;;;;;;23.07;10.87;;;5.60;99.90;;;;;;4771813;30;20287;-82
2022/11/16 03:36:08;;;;;;;24.10;10.40;;;5.50;99.90;;;;;;4772329;30;20208;-87
2022/11/16 03:38:38;;;;;;;21.10;10.03;;;5.50;99.90;;;;;;4770965;30;20307;-85
2022/11/16 03:41:08;;;;;;;24.97;10.93;;;5.60;99.90;;;;;;4771006;30;20207;-85
2022/11/16 03:43:39;;;;;;;24.37;10.53;;;5.60;99.90;;;;;;4770949;30;20319;-88
2022/11/16 03:46:06;;;;;;;21.63;10.10;;;5.70;99.90;;;;;;4756367;30;20658;-85
2022/11/16 03:48:38;;;;;;;26.40;10.50;;;5.70;99.90;;;;;;4771178;30;20269;-86
2022/11/16 03:51:08;;;;;;;23.90;10.10;;;5.60;99.90;;;;;;4770503;30;20213;-88
2022/11/16 03:53:36;;;;;;;20.67;10.27;;;5.70;99.90;;;;;;4779493;30;20242;-88
2022/11/16 03:56:03;;;;;;;22.30;10.40;;;5.70;99.90;;;;;;4789651;29;20649;-88
2022/11/16 03:58:30;;;;;;;24.27;10.63;;;5.80;99.90;;;;;;4778147;30;20292;-84
2022/11/16 04:00:58;;;;;;;22.57;10.57;;;5.90;99.90;;;;;;4788827;29;20195;-86
2022/11/16 04:03:26;;;;;;;21.93;10.10;;;5.80;99.90;;;;;;4789323;29;20270;-87
2022/11/16 04:25:43;;;;;;;23.57;10.47;;;5.70;99.90;;;;;;4789132;29;20677;-87
2022/11/16 04:28:12;;;;;;;24.80;10.87;;;5.80;99.90;;;;;;4772954;30;20229;-85
2022/11/16 04:39:07;;;;;;;26.13;11.27;;;5.70;99.90;;;;;;4788706;29;20194;-85
2022/11/16 04:44:20;;;;;;;27.70;12.23;;;5.70;99.90;;;;;;4787229;29;20234;-87
2022/11/16 04:47:08;;;;;;;30.37;13.00;;;5.70;99.90;;;;;;4772846;30;20594;-85
2022/11/16 04:49:34;;;;;;;28.17;12.30;;;5.60;99.90;;;;;;4773245;30;20207;-86
2022/11/16 04:52:02;;;;;;;29.63;12.80;;;5.80;99.90;;;;;;4772665;30;20207;-86
2022/11/16 04:54:29;;;;;;;28.63;12.53;;;5.70;99.90;;;;;;4772377;30;20276;-85
2022/11/16 04:56:56;;;;;;;28.53;12.67;;;5.70;99.90;;;;;;4773082;30;20227;-84
2022/11/16 04:59:23;;;;;;;31.83;13.27;;;5.60;99.90;;;;;;4772987;30;20633;-88
2022/11/16 05:02:08;;;;;;;28.93;12.33;;;5.70;99.90;;;;;;4788598;29;20531;-88
2022/11/16 05:04:39;;;;;;;28.77;12.60;;;5.60;99.90;;;;;;4772519;30;20219;-87
2022/11/16 05:07:11;;;;;;;30.53;12.83;;;5.60;99.90;;;;;;4772649;30;20650;-87
2022/11/16 05:09:41;;;;;;;34.97;13.20;;;5.50;99.90;;;;;;4772661;30;20223;-88
2022/11/16 05:12:10;;;;;;;31.80;12.93;;;5.60;99.90;;;;;;4772340;30;20218;-83
2022/11/16 05:14:37;;;;;;;29.60;13.03;;;5.60;99.90;;;;;;4772125;30;20617;-87
2022/11/16 05:17:04;;;;;;;29.93;13.93;;;5.70;99.90;;;;;;4772343;30;20211;-87
2022/11/16 05:22:16;;;;;;;31.70;13.20;;;5.50;99.90;;;;;;4772139;30;20215;-87
2022/11/16 05:24:44;;;;;;;31.63;13.77;;;5.60;99.90;;;;;;4772464;30;20263;-86
2022/11/16 05:27:13;;;;;;;35.00;13.77;;;5.60;99.90;;;;;;4788531;29;20218;-84
2022/11/16 05:29:41;;;;;;;35.13;14.00;;;5.70;99.90;;;;;;4772451;30;20210;-84
2022/11/16 05:32:10;;;;;;;32.97;13.63;;;5.60;99.90;;;;;;4772255;30;20749;-83
2022/11/16 05:34:37;;;;;;;35.60;13.80;;;5.60;99.90;;;;;;4772139;30;20295;-80
2022/11/16 05:37:05;;;;;;;34.27;14.03;;;5.60;99.90;;;;;;4772422;30;20205;-89
2022/11/16 05:39:31;;;;;;;32.93;13.77;;;5.60;99.90;;;;;;4772568;30;20259;-86
2022/11/16 05:41:58;;;;;;;36.43;15.10;;;5.70;99.90;;;;;;4772616;30;20299;-87
2022/11/16 05:44:26;;;;;;;35.43;13.97;;;5.60;99.90;;;;;;4788523;30;20211;-88
2022/11/16 05:46:54;;;;;;;32.60;13.80;;;5.60;99.90;;;;;;4757272;30;20202;-86
2022/11/16 05:49:21;;;;;;;35.90;14.80;;;5.70;99.90;;;;;;4757503;30;20207;-88
2022/11/16 05:51:48;;;;;;;35.63;14.20;;;5.70;99.90;;;;;;4772973;30;20196;-85
2022/11/16 05:54:21;;;;;;;37.40;13.70;;;5.60;99.90;;;;;;4771945;30;20269;-86
2022/11/16 05:56:48;;;;;;;33.30;13.93;;;5.50;99.90;;;;;;4771967;30;20331;-86
2022/11/16 05:59:17;;;;;;;36.07;14.53;;;5.70;99.90;;;;;;4757750;30;20214;-84
2022/11/16 06:01:45;;;;;;;36.40;14.73;;;5.60;99.90;;;;;;4773343;30;20215;-87
2022/11/16 06:04:13;;;;;;;34.27;14.00;;;5.60;99.90;;;;;;4772841;30;20231;-86
2022/11/16 06:06:40;;;;;;;37.60;15.00;;;5.70;99.90;;;;;;4788230;30;20293;-81
2022/11/16 06:09:08;;;;;;;34.60;14.43;;;5.70;99.90;;;;;;4771458;30;20207;-82
2022/11/16 06:11:36;;;;;;;38.73;15.00;;;5.80;99.90;;;;;;4771564;30;20214;-82
2022/11/16 06:14:04;;;;;;;34.90;14.20;;;5.70;99.90;;;;;;4771368;30;20545;-82
2022/11/16 06:16:31;;;;;;;36.47;14.77;;;5.80;99.90;;;;;;4771272;30;20204;-81
2022/11/16 06:18:58;;;;;;;45.40;15.03;;;5.80;99.90;;;;;;4771454;30;20215;-82
2022/11/16 06:21:25;;;;;;;36.20;14.60;;;5.80;99.90;;;;;;4771407;30;20215;-82
2022/11/16 06:23:52;;;;;;;34.43;14.60;;;5.80;99.90;;;;;;4788108;29;20223;-83
2022/11/16 06:26:19;;;;;;;31.50;13.77;;;5.70;99.90;;;;;;4791174;29;20207;-87
2022/11/16 06:28:46;;;;;;;36.57;13.47;;;5.70;99.90;;;;;;4790589;29;20213;-87
2022/11/16 06:31:13;;;;;;;36.87;14.40;;;5.70;99.90;;;;;;4774837;29;20238;-86
2022/11/16 06:33:40;;;;;;;34.70;14.80;;;5.70;99.90;;;;;;4776038;30;20585;-88
2022/11/16 06:36:07;;;;;;;33.33;14.47;;;5.70;99.90;;;;;;4774559;30;20207;-86
2022/11/16 06:38:34;;;;;;;37.20;14.60;;;5.70;99.90;;;;;;4775190;30;20202;-82
2022/11/16 06:41:01;;;;;;;42.33;14.90;;;5.80;99.90;;;;;;4790705;29;20616;-86
2022/11/16 06:43:28;;;;;;;35.00;13.97;;;5.80;99.90;;;;;;4774467;30;20238;-85
2022/11/16 06:45:57;;;;;;;31.80;13.93;;;5.80;99.90;;;;;;4774719;30;20209;-86
2022/11/16 06:48:24;;;;;;;35.37;13.90;;;5.80;99.90;;;;;;4759780;30;20686;-85
2022/11/16 06:50:51;;;;;;;33.80;13.60;;;5.80;99.90;;;;;;4774357;30;20208;-83
2022/11/16 06:53:19;;;;;;;32.43;13.20;;;5.80;99.90;;;;;;4774120;30;20250;-82
2022/11/16 06:55:54;;;;;;;31.87;13.57;;;5.90;99.90;;;;;;4773879;30;20654;-82
2022/11/16 06:58:21;;;;;;;33.83;14.87;;;5.90;99.90;;;;;;4774280;30;20225;-83
2022/11/16 07:00:48;;;;;;;29.07;12.70;;;5.80;99.90;;;;;;4774206;30;20211;-85
2022/11/16 07:03:15;;;;;;;29.83;12.57;;;5.80;99.90;;;;;;4774526;30;20231;-84
2022/11/16 07:05:42;;;;;;;29.87;12.87;;;5.90;99.90;;;;;;4790729;29;20207;-83
2022/11/16 07:08:09;;;;;;;28.97;12.47;;;5.90;99.90;;;;;;4774377;30;20791;-84
2022/11/16 07:10:37;;;;;;;27.90;12.57;;;5.80;99.90;;;;;;4790354;29;20680;-84
2022/11/16 07:13:04;;;;;;;30.53;12.73;;;5.80;99.90;;;;;;4773866;30;20205;-83
2022/11/16 07:15:32;;;;;;;29.33;12.83;;;5.80;99.90;;;;;;4773665;29;20222;-84
2022/11/16 07:18:03;;;;;;;27.47;12.20;;;5.80;99.90;;;;;;4759352;30;20204;-81
2022/11/16 07:20:30;;;;;;;26.57;12.23;;;5.80;99.90;;;;;;4773866;30;20225;-86
2022/11/16 07:23:01;;;;;;;27.03;12.13;;;5.90;99.90;;;;;;4790067;29;20195;-85
2022/11/16 07:25:28;;;;;;;29.30;12.17;;;5.90;99.90;;;;;;4773657;29;20649;-82
2022/11/16 07:27:56;;;;;;;27.20;12.23;;;6.00;99.90;;;;;;4789731;29;20678;-87
2022/11/16 07:30:24;;;;;;;29.83;12.27;;;6.00;99.90;;;;;;4774147;30;20211;-82
2022/11/16 07:32:55;;;;;;;27.87;12.10;;;6.00;99.90;;;;;;4773743;30;20210;-87
2022/11/16 07:35:22;;;;;;;27.20;11.73;;;6.00;99.90;;;;;;4789422;29;20204;-86
2022/11/16 07:37:48;;;;;;;30.93;11.93;;;6.10;99.90;;;;;;4773253;30;20290;-83
2022/11/16 07:40:15;;;;;;;27.20;11.90;;;6.10;99.90;;;;;;4789640;29;20244;-84
2022/11/16 07:42:44;;;;;;;28.50;12.00;;;6.10;99.90;;;;;;4773403;30;20562;-85
2022/11/16 07:45:11;;;;;;;26.13;11.63;;;6.00;99.90;;;;;;4789161;29;20318;-80
2022/11/16 07:47:37;;;;;;;25.43;11.67;;;6.10;99.90;;;;;;4789708;30;20211;-80
2022/11/16 07:50:05;;;;;;;26.50;10.97;;;6.00;99.90;;;;;;4773394;30;20222;-81
2022/11/16 07:52:32;;;;;;;29.07;12.33;;;6.00;99.90;;;;;;4773433;30;20212;-81
2022/11/16 07:55:00;;;;;;;28.17;12.20;;;6.00;99.90;;;;;;4772820;30;20237;-81
2022/11/16 07:57:27;;;;;;;26.67;11.70;;;6.00;99.90;;;;;;4788974;29;20561;-80
2022/11/16 07:59:54;;;;;;;28.00;12.00;;;6.00;99.90;;;;;;4773529;30;20207;-86
2022/11/16 08:02:21;;;;;;;26.17;11.67;;;6.10;99.90;;;;;;4773253;30;20630;-82
2022/11/16 08:04:49;;;;;;;28.27;11.47;;;6.00;99.90;;;;;;4773089;30;20235;-84
2022/11/16 08:07:16;;;;;;;27.90;12.00;;;6.00;99.90;;;;;;4773016;30;20222;-85
2022/11/16 08:09:43;;;;;;;25.67;12.10;;;6.00;99.90;;;;;;4772867;30;20569;-85
2022/11/16 08:12:11;;;;;;;29.67;13.00;;;6.00;99.90;;;;;;4773028;30;20217;-83
2022/11/16 08:14:38;;;;;;;31.37;12.47;;;6.10;99.90;;;;;;4772992;30;20204;-81
2022/11/16 08:17:07;;;;;;;30.03;12.60;;;6.00;99.90;;;;;;4772950;30;20208;-83
2022/11/16 08:19:35;;;;;;;29.53;12.13;;;5.90;99.90;;;;;;4773085;30;20221;-84
2022/11/16 08:22:02;;;;;;;28.10;12.90;;;5.90;99.90;;;;;;4772945;30;20211;-81
2022/11/16 08:24:30;;;;;;;31.20;13.67;;;6.00;99.90;;;;;;4772703;30;20234;-85
2022/11/16 08:26:57;;;;;;;27.83;12.60;;;6.00;99.90;;;;;;4788823;29;20294;-87
2022/11/16 08:29:25;;;;;;;28.27;12.27;;;6.20;99.90;;;;;;4772760;30;20241;-87
2022/11/16 08:31:52;;;;;;;26.93;12.77;;;6.10;99.90;;;;;;4789388;30;20205;-85
2022/11/16 08:34:19;;;;;;;32.97;12.70;;;6.00;99.90;;;;;;4789318;29;20591;-87
2022/11/16 08:36:46;;;;;;;30.10;12.73;;;6.10;99.90;;;;;;4788589;29;20198;-86
2022/11/16 08:39:13;;;;;;;28.10;12.30;;;6.10;99.90;;;;;;4772341;30;20561;-87
2022/11/16 08:41:41;;;;;;;28.10;12.63;;;6.20;99.90;;;;;;4772784;30;20208;-84
2022/11/16 08:44:08;;;;;;;31.00;13.00;;;6.10;99.90;;;;;;4772842;30;20241;-84
2022/11/16 08:46:34;;;;;;;27.10;11.77;;;6.20;99.90;;;;;;4789981;29;20203;-84
2022/11/16 08:49:01;;;;;;;27.97;12.10;;;6.20;99.90;;;;;;4772403;30;20217;-84
2022/11/16 08:51:28;;;;;;;27.33;12.57;;;6.20;99.90;;;;;;4772859;30;20210;-84
2022/11/16 08:53:57;;;;;;;25.10;11.93;;;6.20;99.90;;;;;;4788370;30;20243;-85
2022/11/16 08:56:28;;;;;;;26.93;12.77;;;6.30;99.90;;;;;;4772006;30;20292;-85
2022/11/16 08:58:56;;;;;;;27.10;12.47;;;6.10;99.90;;;;;;4788712;29;20229;-84
2022/11/16 09:01:27;;;;;;;30.43;12.03;;;6.10;99.90;;;;;;4772333;30;20258;-83
2022/11/16 09:03:55;;;;;;;29.30;12.43;;;6.10;99.90;;;;;;4773987;30;20655;-85
2022/11/16 09:06:23;;;;;;;25.53;12.37;;;6.10;99.90;;;;;;4772501;30;20214;-84
2022/11/16 09:08:51;;;;;;;29.33;11.87;;;6.10;99.90;;;;;;4772856;30;20215;-84
2022/11/16 09:11:22;;;;;;;24.60;11.90;;;6.10;99.90;;;;;;4772247;30;20271;-83
2022/11/16 09:13:52;;;;;;;23.27;11.40;;;6.10;99.90;;;;;;4772449;30;20210;-84
2022/11/16 09:16:20;;;;;;;24.07;11.47;;;6.10;99.90;;;;;;4791931;29;20205;-83
2022/11/16 09:18:49;;;;;;;25.83;11.57;;;6.10;99.90;;;;;;4772168;30;20310;-82
2022/11/16 09:21:22;;;;;;;23.60;11.20;;;6.00;99.90;;;;;;4772497;30;20215;-83
2022/11/16 09:23:52;;;;;;;22.50;11.13;;;6.10;99.90;;;;;;4772510;30;20241;-84
2022/11/16 09:26:21;;;;;;;24.17;11.23;;;6.00;99.90;;;;;;4788266;29;20207;-84
2022/11/16 09:28:54;;;;;;;21.47;10.77;;;6.00;99.90;;;;;;4772246;30;20624;-85
2022/11/16 09:31:21;;;;;;;23.53;9.60;;;6.00;99.90;;;;;;4788669;30;20207;-82
2022/11/16 09:33:49;;;;;;;20.87;9.53;;;6.00;99.90;;;;;;4771957;30;20218;-84
2022/11/16 09:36:16;;;;;;;19.23;9.73;;;6.00;99.90;;;;;;4771626;30;20198;-81
2022/11/16 09:38:45;;;;;;;18.37;9.03;;;6.00;99.90;;;;;;4771994;30;20212;-82
2022/11/16 09:42:07;;;;;;;15.30;7.57;;;6.10;99.90;;;;;;4787698;29;20208;-83
2022/11/16 09:44:39;;;;;;;13.60;6.37;;;6.10;99.90;;;;;;4771813;30;20244;-85
2022/11/16 09:47:38;;;;;;;12.90;6.30;;;6.20;99.90;;;;;;4772013;30;20202;-82
2022/11/16 09:50:16;;;;;;;12.50;6.70;;;6.20;99.90;;;;;;4768979;30;20214;-82
2022/11/16 09:52:47;;;;;;;17.53;6.70;;;6.20;99.90;;;;;;4787398;29;20557;-82
2022/11/16 09:55:35;;;;;;;12.63;6.37;;;6.20;99.90;;;;;;4771906;30;20212;-82
2022/11/16 09:58:11;;;;;;;15.27;6.20;;;6.20;99.90;;;;;;4787874;29;20215;-84
2022/11/16 10:00:44;;;;;;;13.40;5.80;;;6.20;99.90;;;;;;4791506;29;20205;-85
2022/11/16 10:03:13;;;;;;;11.13;5.77;;;6.20;99.90;;;;;;4775751;30;20215;-84
2022/11/16 10:06:10;;;;;;;13.33;5.73;;;6.30;99.90;;;;;;4776005;30;20237;-84
2022/11/16 10:08:50;;;;;;;15.97;6.50;;;6.30;99.90;;;;;;4774667;30;20655;-83
2022/11/16 10:11:37;;;;;;;12.43;6.03;;;6.30;99.90;;;;;;4791469;29;20209;-84
2022/11/16 10:14:32;;;;;;;11.37;6.27;;;6.30;99.90;;;;;;4791097;29;20206;-86
2022/11/16 10:17:05;;;;;;;10.93;6.20;;;6.20;99.90;;;;;;4791515;30;20207;-85
2022/11/16 10:19:46;;;;;;;12.10;6.03;;;6.10;99.90;;;;;;4775455;30;20202;-84
2022/11/16 10:22:45;;;;;;;14.53;6.33;;;6.10;99.90;;;;;;4762699;30;20600;-85
2022/11/16 10:25:38;;;;;;;12.87;6.27;;;6.10;99.90;;;;;;4777774;30;20227;-85
2022/11/16 10:28:23;;;;;;;15.20;6.80;;;6.10;99.90;;;;;;4787169;29;20221;-85
2022/11/16 10:30:58;;;;;;;18.27;6.93;;;6.10;99.90;;;;;;4777933;30;20565;-84
2022/11/16 10:33:34;;;;;;;17.00;6.97;;;6.10;99.90;;;;;;4776871;30;20597;-85
2022/11/16 10:36:13;;;;;;;16.93;7.60;;;6.10;99.90;;;;;;4760325;30;20234;-84
2022/11/16 10:38:42;;;;;;;12.90;7.10;;;6.20;99.90;;;;;;4774518;30;20583;-86
2022/11/16 10:41:29;;;;;;;14.50;7.33;;;6.20;99.90;;;;;;4789628;29;20255;-86
2022/11/16 10:43:59;;;;;;;15.97;7.77;;;6.10;99.90;;;;;;4790458;29;20578;-85
2022/11/16 10:46:38;;;;;;;13.87;7.47;;;6.20;99.90;;;;;;4774363;30;20291;-85
2022/11/16 10:49:24;;;;;;;14.33;7.63;;;6.10;99.90;;;;;;4774501;30;20205;-87
2022/11/16 10:51:50;;;;;;;13.60;7.10;;;6.10;99.90;;;;;;4776344;29;20210;-85
2022/11/16 10:54:17;;;;;;;14.73;7.33;;;6.10;99.90;;;;;;4790591;29;20246;-84
2022/11/16 10:56:48;;;;;;;13.27;7.00;;;6.10;99.90;;;;;;4775127;30;20227;-84
2022/11/16 10:59:18;;;;;;;12.03;6.80;;;6.20;99.90;;;;;;4777214;30;20219;-84
2022/11/16 11:01:51;;;;;;;12.07;6.70;;;6.10;99.90;;;;;;4790669;29;20246;-84
2022/11/16 11:04:27;;;;;;;12.87;6.20;;;6.10;99.90;;;;;;4790483;30;20257;-84
2022/11/16 11:06:54;;;;;;;13.07;6.57;;;6.10;99.90;;;;;;4759460;30;20306;-85
2022/11/16 11:09:24;;;;;;;13.47;6.73;;;6.10;99.90;;;;;;4774282;30;20204;-85
2022/11/16 11:15:01;;;;;;;11.57;6.27;;;6.10;99.90;;;;;;4790448;30;20202;-83
2022/11/16 11:17:34;;;;;;;15.03;6.57;;;6.20;99.90;;;;;;4776787;30;20285;-85
2022/11/16 11:20:03;;;;;;;15.90;6.57;;;6.20;99.90;;;;;;4790185;29;20260;-83
2022/11/16 11:22:33;;;;;;;11.23;6.00;;;6.30;99.90;;;;;;4774002;30;20207;-82
2022/11/16 11:25:14;;;;;;;12.30;6.20;;;6.30;99.90;;;;;;4789630;29;20221;-86
2022/11/16 11:27:41;;;;;;;12.33;6.33;;;6.20;99.90;;;;;;4774291;30;20227;-87
2022/11/16 11:30:22;;;;;;;15.17;6.13;;;6.30;99.90;;;;;;4790237;29;20214;-85
2022/11/16 11:32:51;;;;;;;9.80;5.67;;;6.30;99.90;;;;;;4774340;30;20532;-83
2022/11/16 11:35:25;;;;;;;12.17;6.53;;;6.30;99.90;;;;;;4773924;30;20212;-81
2022/11/16 11:37:54;;;;;;;11.60;6.37;;;6.20;99.90;;;;;;4773764;30;20515;-83
2022/11/16 11:40:24;;;;;;;15.37;6.77;;;6.20;99.90;;;;;;4773767;30;20571;-83
2022/11/16 11:42:54;;;;;;;14.20;6.20;;;6.30;99.90;;;;;;4789915;29;20661;-85
2022/11/16 11:45:29;;;;;;;13.63;6.53;;;6.20;99.90;;;;;;4776380;30;20238;-85
2022/11/16 11:48:15;;;;;;;10.10;5.73;;;6.30;99.90;;;;;;4791488;30;20206;-86
2022/11/16 11:50:51;;;;;;;11.70;6.33;;;6.30;99.90;;;;;;4775892;30;20767;-86
2022/11/16 11:53:37;;;;;;;15.27;6.53;;;6.30;99.90;;;;;;4771125;30;20244;-85
2022/11/16 11:56:04;;;;;;;9.70;6.10;;;6.20;99.90;;;;;;4770787;30;20199;-85
2022/11/16 11:58:34;;;;;;;10.43;5.77;;;6.20;99.90;;;;;;4770415;30;20232;-85
2022/11/16 12:01:38;;;;;;;11.97;6.17;;;6.20;99.90;;;;;;4785925;30;20191;-85
2022/11/16 12:04:30;;;;;;;11.93;6.23;;;6.20;99.90;;;;;;4771254;30;20196;-84
2022/11/16 12:07:18;;;;;;;11.83;5.37;;;6.20;99.90;;;;;;4771604;30;20229;-85
2022/11/16 12:10:07;;;;;;;9.33;5.27;;;6.20;99.90;;;;;;4771450;30;20597;-85
2022/11/16 12:12:50;;;;;;;16.87;5.27;;;6.20;99.90;;;;;;4769712;30;20225;-86
2022/11/16 12:15:32;;;;;;;8.50;5.03;;;6.30;99.90;;;;;;4771393;30;20529;-88
2022/11/16 12:18:14;;;;;;;7.43;4.70;;;6.20;99.90;;;;;;4771359;30;20562;-87
2022/11/16 12:21:08;;;;;;;6.40;4.23;;;6.20;99.90;;;;;;4770339;30;20225;-88
2022/11/16 12:23:53;;;;;;;7.33;4.50;;;6.20;99.90;;;;;;4755104;30;20243;-88
2022/11/16 12:26:35;;;;;;;5.63;3.63;;;6.20;99.90;;;;;;4769534;30;20237;-84
2022/11/16 12:29:24;;;;;;;6.30;3.67;;;6.10;99.90;;;;;;4769622;30;20221;-86
2022/11/16 12:32:11;;;;;;;4.77;3.20;;;6.10;99.90;;;;;;4770855;30;20364;-84
2022/11/16 12:34:38;;;;;;;7.60;3.90;;;6.00;99.90;;;;;;4770304;29;20199;-86
2022/11/16 12:37:17;;;;;;;20.73;4.93;;;6.00;99.90;;;;;;4770491;30;20240;-86
2022/11/16 12:39:58;;;;;;;4.13;3.00;;;5.90;99.90;;;;;;4771095;30;20287;-85
2022/11/16 12:42:53;;;;;;;6.07;3.00;;;5.90;99.90;;;;;;4769233;30;20204;-85
2022/11/16 12:45:39;;;;;;;4.57;2.70;;;5.80;99.90;;;;;;4768448;30;20215;-84
2022/11/16 12:48:29;;;;;;;9.70;2.60;;;5.70;99.90;;;;;;4769367;30;20202;-83
2022/11/16 12:51:20;;;;;;;3.20;1.90;;;5.50;99.90;;;;;;4769959;30;20211;-83
2022/11/16 12:54:22;;;;;;;2.00;1.70;;;5.30;99.90;;;;;;4768693;30;20239;-83
2022/11/16 12:56:55;;;;;;;2.30;1.60;;;5.20;99.90;;;;;;4734454;30;20246;-82
2022/11/16 12:59:28;;;;;;;2.30;1.60;;;5.10;99.90;;;;;;4735191;30;20215;-82
2022/11/16 13:02:20;;;;;;;2.00;1.60;;;5.00;99.90;;;;;;4735666;30;20233;-87
2022/11/16 13:04:59;;;;;;;2.40;1.67;;;4.90;99.90;;;;;;4710498;30;20320;-85
2022/11/16 13:07:45;;;;;;;2.53;1.70;;;4.70;99.90;;;;;;4749949;30;20276;-82
2022/11/16 13:10:34;;;;;;;2.30;1.70;;;4.60;99.90;;;;;;4736103;30;20290;-88
2022/11/16 13:13:09;;;;;;;2.10;1.70;;;4.60;99.90;;;;;;4735231;30;20223;-84
2022/11/16 13:16:00;;;;;;;1.97;1.70;;;4.50;99.90;;;;;;4757997;30;20202;-84
2022/11/16 13:18:28;;;;;;;3.37;2.20;;;4.50;99.90;;;;;;4752960;30;20211;-82
2022/11/16 13:21:09;;;;;;;2.40;2.00;;;4.40;99.90;;;;;;4767680;30;20225;-82
2022/11/16 13:23:48;;;;;;;2.57;1.90;;;4.40;99.90;;;;;;4767739;30;20214;-85
2022/11/16 13:26:32;;;;;;;4.33;2.30;;;4.30;99.90;;;;;;4752888;30;20265;-80
2022/11/16 13:29:13;;;;;;;5.40;2.70;;;4.20;99.90;;;;;;4767518;30;20205;-84
2022/11/16 13:32:03;;;;;;;4.20;2.53;;;4.20;99.90;;;;;;4753097;30;20758;-82
2022/11/16 13:34:36;;;;;;;3.20;2.50;;;4.10;99.90;;;;;;4785633;30;20211;-81
2022/11/16 13:37:37;;;;;;;5.43;3.03;;;4.10;99.90;;;;;;4788026;29;20209;-84
2022/11/16 13:40:04;;;;;;;3.20;2.60;;;4.10;99.90;;;;;;4786541;30;20217;-87
2022/11/16 13:43:09;;;;;;;5.03;3.20;;;4.00;99.90;;;;;;4787645;29;20205;-85
2022/11/16 13:45:40;;;;;;;4.13;3.07;;;4.10;99.90;;;;;;4780546;30;20228;-88
2022/11/16 13:48:29;;;;;;;8.00;3.47;;;4.10;99.90;;;;;;4774033;30;20689;-87
2022/11/16 13:51:00;;;;;;;5.50;3.30;;;4.00;99.90;;;;;;4769263;30;20266;-84
2022/11/16 13:53:34;;;;;;;5.97;3.53;;;4.00;99.90;;;;;;4769101;30;20324;-85
2022/11/16 13:56:22;;;;;;;5.87;3.13;;;4.00;99.90;;;;;;4770085;30;20738;-82